sensor_id;sensor_type;location;lat;lon;timestamp;pressure;altitude;pressure_sealevel;temperature;humidity
12775;BME280;6451;42.630;23.382;2023-09-07T00:00:42;94906.09;;;19.58;100.00
12775;BME280;6451;42.630;23.382;2023-09-07T00:03:09;94905.31;;;19.61;100.00
12775;BME280;6451;42.630;23.382;2023-09-07T00:05:37;94876.97;;;19.50;100.00
12775;BME280;6451;42.630;23.382;2023-09-07T00:08:05;94890.69;;;19.39;100.00
12775;BME280;6451;42.630;23.382;2023-09-07T00:10:32;94888.31;;;19.37;100.00
12775;BME280;6451;42.630;23.382;2023-09-07T00:13:00;94898.16;;;19.35;100.00
12775;BME280;6451;42.630;23.382;2023-09-07T00:15:28;94881.59;;;19.17;100.00
12775;BME280;6451;42.630;23.382;2023-09-07T00:17:56;94900.03;;;19.09;100.00
12775;BME280;6451;42.630;23.382;2023-09-07T00:20:23;94890.97;;;19.02;100.00
12775;BME280;6451;42.630;23.382;2023-09-07T00:22:52;94897.53;;;18.79;100.00
12775;BME280;6451;42.630;23.382;2023-09-07T00:25:19;94902.69;;;18.88;100.00
12775;BME280;6451;42.630;23.382;2023-09-07T00:27:46;94904.25;;;18.93;100.00
12775;BME280;6451;42.630;23.382;2023-09-07T00:30:13;94895.28;;;19.06;100.00
12775;BME280;6451;42.630;23.382;2023-09-07T00:32:40;94884.31;;;19.10;100.00
12775;BME280;6451;42.630;23.382;2023-09-07T00:35:08;94888.19;;;18.98;100.00
12775;BME280;6451;42.630;23.382;2023-09-07T00:37:35;94875.97;;;18.88;100.00
12775;BME280;6451;42.630;23.382;2023-09-07T00:40:04;94896.84;;;19.04;100.00
12775;BME280;6451;42.630;23.382;2023-09-07T00:42:34;94898.34;;;18.87;100.00
12775;BME280;6451;42.630;23.382;2023-09-07T00:45:03;94895.19;;;18.85;100.00
12775;BME280;6451;42.630;23.382;2023-09-07T00:47:30;94886.50;;;18.72;100.00
12775;BME280;6451;42.630;23.382;2023-09-07T00:50:00;94892.81;;;18.83;100.00
12775;BME280;6451;42.630;23.382;2023-09-07T00:52:27;94898.75;;;18.93;100.00
12775;BME280;6451;42.630;23.382;2023-09-07T00:54:54;94898.00;;;18.99;100.00
12775;BME280;6451;42.630;23.382;2023-09-07T00:57:22;94894.13;;;19.07;100.00
12775;BME280;6451;42.630;23.382;2023-09-07T00:59:51;94882.28;;;19.00;100.00
12775;BME280;6451;42.630;23.382;2023-09-07T01:02:23;94889.78;;;19.06;100.00
12775;BME280;6451;42.630;23.382;2023-09-07T01:04:51;94874.03;;;18.96;100.00
12775;BME280;6451;42.630;23.382;2023-09-07T01:07:20;94889.81;;;19.13;100.00
12775;BME280;6451;42.630;23.382;2023-09-07T01:09:53;94880.75;;;19.02;100.00
12775;BME280;6451;42.630;23.382;2023-09-07T01:12:22;94895.31;;;19.10;100.00
12775;BME280;6451;42.630;23.382;2023-09-07T01:14:49;94887.84;;;19.14;100.00
12775;BME280;6451;42.630;23.382;2023-09-07T01:17:16;94894.50;;;19.06;100.00
12775;BME280;6451;42.630;23.382;2023-09-07T01:19:44;94898.81;;;19.03;100.00
12775;BME280;6451;42.630;23.382;2023-09-07T01:22:12;94894.06;;;18.97;100.00
12775;BME280;6451;42.630;23.382;2023-09-07T01:24:41;94896.44;;;18.95;100.00
12775;BME280;6451;42.630;23.382;2023-09-07T01:27:08;94884.22;;;18.92;100.00
12775;BME280;6451;42.630;23.382;2023-09-07T01:29:36;94893.66;;;18.87;100.00
12775;BME280;6451;42.630;23.382;2023-09-07T01:32:03;94888.94;;;18.88;100.00
12775;BME280;6451;42.630;23.382;2023-09-07T01:34:30;94888.94;;;18.88;100.00
12775;BME280;6451;42.630;23.382;2023-09-07T01:36:57;94883.84;;;18.94;100.00
12775;BME280;6451;42.630;23.382;2023-09-07T01:39:25;94868.91;;;18.87;100.00
12775;BME280;6451;42.630;23.382;2023-09-07T01:41:52;94883.03;;;18.89;100.00
12775;BME280;6451;42.630;23.382;2023-09-07T01:44:19;94893.66;;;18.91;100.00
12775;BME280;6451;42.630;23.382;2023-09-07T01:46:46;94875.94;;;18.81;100.00
12775;BME280;6451;42.630;23.382;2023-09-07T01:49:13;94882.22;;;18.85;100.00
12775;BME280;6451;42.630;23.382;2023-09-07T01:51:40;94875.91;;;18.78;100.00
12775;BME280;6451;42.630;23.382;2023-09-07T01:54:13;94884.94;;;18.78;100.00
12775;BME280;6451;42.630;23.382;2023-09-07T01:56:41;94882.22;;;18.82;100.00
12775;BME280;6451;42.630;23.382;2023-09-07T01:59:08;94862.50;;;18.66;100.00
12775;BME280;6451;42.630;23.382;2023-09-07T02:01:35;94858.59;;;18.70;100.00
12775;BME280;6451;42.630;23.382;2023-09-07T02:04:04;94880.69;;;18.92;100.00
12775;BME280;6451;42.630;23.382;2023-09-07T02:06:31;94885.00;;;18.93;100.00
12775;BME280;6451;42.630;23.382;2023-09-07T02:08:58;94881.13;;;18.97;100.00
12775;BME280;6451;42.630;23.382;2023-09-07T02:11:25;94877.16;;;18.91;100.00
12775;BME280;6451;42.630;23.382;2023-09-07T02:13:54;94869.69;;;18.92;100.00
12775;BME280;6451;42.630;23.382;2023-09-07T02:16:21;94823.59;;;18.64;100.00
12775;BME280;6451;42.630;23.382;2023-09-07T02:18:49;94874.47;;;19.02;100.00
12775;BME280;6451;42.630;23.382;2023-09-07T02:21:16;94878.38;;;19.04;100.00
12775;BME280;6451;42.630;23.382;2023-09-07T02:23:43;94882.72;;;19.02;100.00
12775;BME280;6451;42.630;23.382;2023-09-07T02:26:10;94882.69;;;18.98;100.00
12775;BME280;6451;42.630;23.382;2023-09-07T02:28:43;94886.25;;;19.02;100.00
12775;BME280;6451;42.630;23.382;2023-09-07T02:31:11;94882.31;;;19.03;100.00
12775;BME280;6451;42.630;23.382;2023-09-07T02:33:39;94885.81;;;19.00;100.00
12775;BME280;6451;42.630;23.382;2023-09-07T02:36:07;94886.63;;;19.01;100.00
12775;BME280;6451;42.630;23.382;2023-09-07T02:38:34;94882.22;;;18.85;100.00
12775;BME280;6451;42.630;23.382;2023-09-07T02:41:01;94888.13;;;18.80;100.00
12775;BME280;6451;42.630;23.382;2023-09-07T02:43:28;94879.06;;;18.80;100.00
12775;BME280;6451;42.630;23.382;2023-09-07T02:45:55;94890.91;;;18.87;100.00
12775;BME280;6451;42.630;23.382;2023-09-07T02:48:26;94886.59;;;18.90;100.00
12775;BME280;6451;42.630;23.382;2023-09-07T02:51:03;94893.69;;;18.95;100.00
12775;BME280;6451;42.630;23.382;2023-09-07T02:53:30;94901.50;;;18.93;100.00
12775;BME280;6451;42.630;23.382;2023-09-07T02:55:57;94898.75;;;18.93;100.00
12775;BME280;6451;42.630;23.382;2023-09-07T02:58:24;94901.47;;;18.85;100.00
12775;BME280;6451;42.630;23.382;2023-09-07T03:00:51;94895.16;;;18.74;100.00
12775;BME280;6451;42.630;23.382;2023-09-07T03:03:18;94895.84;;;18.64;100.00
12775;BME280;6451;42.630;23.382;2023-09-07T03:05:47;94906.53;;;18.76;100.00
12775;BME280;6451;42.630;23.382;2023-09-07T03:08:13;94890.44;;;18.71;100.00
12775;BME280;6451;42.630;23.382;2023-09-07T03:10:41;94907.72;;;18.72;100.00
12775;BME280;6451;42.630;23.382;2023-09-07T03:13:09;94900.69;;;18.81;100.00
12775;BME280;6451;42.630;23.382;2023-09-07T03:15:36;94897.56;;;18.86;100.00
12775;BME280;6451;42.630;23.382;2023-09-07T03:18:03;94899.84;;;18.74;100.00
12775;BME280;6451;42.630;23.382;2023-09-07T03:20:33;94894.75;;;18.72;100.00
12775;BME280;6451;42.630;23.382;2023-09-07T03:23:01;94897.91;;;18.74;100.00
12775;BME280;6451;42.630;23.382;2023-09-07T03:25:29;94894.63;;;18.61;100.00
12775;BME280;6451;42.630;23.382;2023-09-07T03:27:56;94899.03;;;18.66;100.00
12775;BME280;6451;42.630;23.382;2023-09-07T03:30:23;94889.09;;;18.54;100.00
12775;BME280;6451;42.630;23.382;2023-09-07T03:32:50;94895.41;;;18.58;100.00
12775;BME280;6451;42.630;23.382;2023-09-07T03:35:17;94884.00;;;18.53;100.00
12775;BME280;6451;42.630;23.382;2023-09-07T03:37:44;94894.63;;;18.58;100.00
12775;BME280;6451;42.630;23.382;2023-09-07T03:40:12;94893.06;;;18.57;100.00
12775;BME280;6451;42.630;23.382;2023-09-07T03:42:40;94904.75;;;18.47;100.00
12775;BME280;6451;42.630;23.382;2023-09-07T03:45:08;94876.78;;;18.30;100.00
12775;BME280;6451;42.630;23.382;2023-09-07T03:47:35;94889.38;;;18.39;100.00
12775;BME280;6451;42.630;23.382;2023-09-07T03:50:03;94915.75;;;18.47;100.00
12775;BME280;6451;42.630;23.382;2023-09-07T03:52:30;94869.56;;;18.08;100.00
12775;BME280;6451;42.630;23.382;2023-09-07T03:54:57;94915.69;;;18.40;100.00
12775;BME280;6451;42.630;23.382;2023-09-07T03:57:26;94921.25;;;18.47;100.00
12775;BME280;6451;42.630;23.382;2023-09-07T03:59:53;94873.47;;;18.07;100.00
12775;BME280;6451;42.630;23.382;2023-09-07T04:02:21;94930.25;;;18.44;100.00
12775;BME280;6451;42.630;23.382;2023-09-07T04:04:49;94923.94;;;18.40;100.00
12775;BME280;6451;42.630;23.382;2023-09-07T04:07:16;94929.81;;;18.34;100.00
12775;BME280;6451;42.630;23.382;2023-09-07T04:09:44;94931.28;;;18.21;100.00
12775;BME280;6451;42.630;23.382;2023-09-07T04:12:11;94926.09;;;18.13;100.00
12775;BME280;6451;42.630;23.382;2023-09-07T04:14:39;94922.63;;;18.19;100.00
12775;BME280;6451;42.630;23.382;2023-09-07T04:17:07;94918.38;;;18.29;100.00
12775;BME280;6451;42.630;23.382;2023-09-07T04:19:34;94924.38;;;18.45;100.00
12775;BME280;6451;42.630;23.382;2023-09-07T04:22:01;94928.31;;;18.44;100.00
12775;BME280;6451;42.630;23.382;2023-09-07T04:24:28;94903.06;;;18.31;100.00
12775;BME280;6451;42.630;23.382;2023-09-07T04:26:58;94918.53;;;18.50;100.00
12775;BME280;6451;42.630;23.382;2023-09-07T04:29:26;94921.69;;;18.52;100.00
12775;BME280;6451;42.630;23.382;2023-09-07T04:31:54;94911.44;;;18.46;100.00
12775;BME280;6451;42.630;23.382;2023-09-07T04:34:23;94925.34;;;18.71;100.00
12775;BME280;6451;42.630;23.382;2023-09-07T04:36:50;94924.44;;;18.52;100.00
12775;BME280;6451;42.630;23.382;2023-09-07T04:39:17;94922.50;;;18.56;100.00
12775;BME280;6451;42.630;23.382;2023-09-07T04:41:44;94933.41;;;18.46;100.00
12775;BME280;6451;42.630;23.382;2023-09-07T04:44:10;94940.91;;;18.49;100.00
12775;BME280;6451;42.630;23.382;2023-09-07T04:46:39;94941.72;;;18.53;100.00
12775;BME280;6451;42.630;23.382;2023-09-07T04:49:08;94935.06;;;18.57;100.00
12775;BME280;6451;42.630;23.382;2023-09-07T04:51:35;94940.88;;;18.45;100.00
12775;BME280;6451;42.630;23.382;2023-09-07T04:54:02;94943.19;;;18.40;100.00
12775;BME280;6451;42.630;23.382;2023-09-07T04:56:29;94938.97;;;18.53;100.00
12775;BME280;6451;42.630;23.382;2023-09-07T04:58:56;94931.88;;;18.48;100.00
12775;BME280;6451;42.630;23.382;2023-09-07T05:01:23;94938.56;;;18.54;100.00
12775;BME280;6451;42.630;23.382;2023-09-07T05:03:50;94941.06;;;18.67;100.00
12775;BME280;6451;42.630;23.382;2023-09-07T05:06:19;94936.22;;;18.53;100.00
12775;BME280;6451;42.630;23.382;2023-09-07T05:08:48;94933.50;;;18.60;100.00
12775;BME280;6451;42.630;23.382;2023-09-07T05:11:15;94937.00;;;18.50;100.00
12775;BME280;6451;42.630;23.382;2023-09-07T05:13:42;94929.88;;;18.42;100.00
12775;BME280;6451;42.630;23.382;2023-09-07T05:16:09;94941.31;;;18.51;100.00
12775;BME280;6451;42.630;23.382;2023-09-07T05:18:35;94947.25;;;18.60;100.00
12775;BME280;6451;42.630;23.382;2023-09-07T05:21:11;94956.31;;;18.64;100.00
12775;BME280;6451;42.630;23.382;2023-09-07T05:23:39;94957.06;;;18.61;100.00
12775;BME280;6451;42.630;23.382;2023-09-07T05:26:06;94949.47;;;18.40;100.00
12775;BME280;6451;42.630;23.382;2023-09-07T05:28:33;94964.13;;;18.58;100.00
12775;BME280;6451;42.630;23.382;2023-09-07T05:31:00;94923.59;;;18.45;100.00
12775;BME280;6451;42.630;23.382;2023-09-07T05:33:27;94961.91;;;18.75;100.00
12775;BME280;6451;42.630;23.382;2023-09-07T05:35:54;94955.28;;;18.79;100.00
12775;BME280;6451;42.630;23.382;2023-09-07T05:38:21;94945.41;;;18.75;100.00
12775;BME280;6451;42.630;23.382;2023-09-07T05:40:50;94958.91;;;18.94;100.00
12775;BME280;6451;42.630;23.382;2023-09-07T05:43:19;94952.28;;;19.02;100.00
12775;BME280;6451;42.630;23.382;2023-09-07T05:45:46;94948.75;;;19.09;100.00
12775;BME280;6451;42.630;23.382;2023-09-07T05:48:14;94951.09;;;19.07;100.00
12775;BME280;6451;42.630;23.382;2023-09-07T05:50:42;94953.50;;;19.15;100.00
12775;BME280;6451;42.630;23.382;2023-09-07T05:53:09;94951.59;;;19.30;100.00
12775;BME280;6451;42.630;23.382;2023-09-07T05:55:36;94939.00;;;19.29;100.00
12775;BME280;6451;42.630;23.382;2023-09-07T05:58:06;94947.28;;;19.33;100.00
12775;BME280;6451;42.630;23.382;2023-09-07T06:00:34;94958.75;;;19.49;100.00
12775;BME280;6451;42.630;23.382;2023-09-07T06:03:01;94932.00;;;19.53;100.00
12775;BME280;6451;42.630;23.382;2023-09-07T06:05:29;94936.84;;;19.85;100.00
12775;BME280;6451;42.630;23.382;2023-09-07T06:07:56;94937.66;;;20.14;100.00
12775;BME280;6451;42.630;23.382;2023-09-07T06:10:23;94939.25;;;20.29;100.00
12775;BME280;6451;42.630;23.382;2023-09-07T06:12:50;94948.31;;;20.54;100.00
12775;BME280;6451;42.630;23.382;2023-09-07T06:15:18;94947.94;;;20.70;100.00
12775;BME280;6451;42.630;23.382;2023-09-07T06:17:45;94947.09;;;20.91;100.00
12775;BME280;6451;42.630;23.382;2023-09-07T06:20:12;94954.19;;;20.89;100.00
12775;BME280;6451;42.630;23.382;2023-09-07T06:22:39;94956.56;;;20.94;100.00
12775;BME280;6451;42.630;23.382;2023-09-07T06:25:06;94963.59;;;21.05;100.00
12775;BME280;6451;42.630;23.382;2023-09-07T06:27:33;94957.25;;;21.30;100.00
12775;BME280;6451;42.630;23.382;2023-09-07T06:30:00;94967.53;;;21.15;100.00
12775;BME280;6451;42.630;23.382;2023-09-07T06:32:29;94968.75;;;21.03;100.00
12775;BME280;6451;42.630;23.382;2023-09-07T06:34:56;94956.88;;;21.21;100.00
12775;BME280;6451;42.630;23.382;2023-09-07T06:37:24;94961.19;;;21.36;100.00
12775;BME280;6451;42.630;23.382;2023-09-07T06:39:51;94971.81;;;21.37;100.00
12775;BME280;6451;42.630;23.382;2023-09-07T06:42:18;94945.81;;;21.35;100.00
12775;BME280;6451;42.630;23.382;2023-09-07T06:44:45;94963.50;;;21.48;100.00
12775;BME280;6451;42.630;23.382;2023-09-07T06:47:11;94948.88;;;21.51;100.00
12775;BME280;6451;42.630;23.382;2023-09-07T06:49:40;94969.28;;;21.75;100.00
12775;BME280;6451;42.630;23.382;2023-09-07T06:52:07;94962.91;;;21.89;100.00
12775;BME280;6451;42.630;23.382;2023-09-07T06:54:34;94944.47;;;21.72;100.00
12775;BME280;6451;42.630;23.382;2023-09-07T06:57:01;94966.44;;;21.89;100.00
12775;BME280;6451;42.630;23.382;2023-09-07T06:59:27;94960.84;;;22.04;100.00
12775;BME280;6451;42.630;23.382;2023-09-07T07:01:54;94966.72;;;22.16;100.00
12775;BME280;6451;42.630;23.382;2023-09-07T07:04:24;94969.88;;;22.18;100.00
12775;BME280;6451;42.630;23.382;2023-09-07T07:06:53;94963.91;;;22.20;100.00
12775;BME280;6451;42.630;23.382;2023-09-07T07:09:19;94938.41;;;21.91;100.00
12775;BME280;6451;42.630;23.382;2023-09-07T07:11:48;94946.00;;;21.80;100.00
12775;BME280;6451;42.630;23.382;2023-09-07T07:14:14;94961.41;;;21.74;100.00
12775;BME280;6451;42.630;23.382;2023-09-07T07:16:41;94965.75;;;21.78;100.00
12775;BME280;6451;42.630;23.382;2023-09-07T07:19:08;94970.50;;;21.67;100.00
12775;BME280;6451;42.630;23.382;2023-09-07T07:21:35;94968.91;;;21.70;100.00
12775;BME280;6451;42.630;23.382;2023-09-07T07:24:04;94971.69;;;21.70;100.00
12775;BME280;6451;42.630;23.382;2023-09-07T07:26:32;94970.16;;;21.54;100.00
12775;BME280;6451;42.630;23.382;2023-09-07T07:28:59;94974.19;;;21.35;100.00
12775;BME280;6451;42.630;23.382;2023-09-07T07:31:25;94980.88;;;21.38;100.00
12775;BME280;6451;42.630;23.382;2023-09-07T07:33:53;94971.78;;;21.48;100.00
12775;BME280;6451;42.630;23.382;2023-09-07T07:36:20;94953.69;;;21.26;100.00
12775;BME280;6451;42.630;23.382;2023-09-07T07:38:47;94976.88;;;21.53;100.00
12775;BME280;6451;42.630;23.382;2023-09-07T07:41:16;94981.25;;;21.51;100.00
12775;BME280;6451;42.630;23.382;2023-09-07T07:43:43;94923.00;;;21.09;100.00
12775;BME280;6451;42.630;23.382;2023-09-07T07:46:10;94989.56;;;21.40;100.00
12775;BME280;6451;42.630;23.382;2023-09-07T07:48:41;94987.94;;;21.46;100.00
12775;BME280;6451;42.630;23.382;2023-09-07T07:51:07;94983.22;;;21.47;100.00
12775;BME280;6451;42.630;23.382;2023-09-07T07:53:34;94980.44;;;21.57;100.00
12775;BME280;6451;42.630;23.382;2023-09-07T07:56:01;94980.84;;;21.52;100.00
12775;BME280;6451;42.630;23.382;2023-09-07T07:58:31;94983.59;;;21.56;100.00
12775;BME280;6451;42.630;23.382;2023-09-07T08:00:57;94976.50;;;21.55;100.00
12775;BME280;6451;42.630;23.382;2023-09-07T08:03:24;94987.50;;;21.65;100.00
12775;BME280;6451;42.630;23.382;2023-09-07T08:05:51;94980.34;;;21.79;100.00
12775;BME280;6451;42.630;23.382;2023-09-07T08:08:18;94975.91;;;21.92;100.00
12775;BME280;6451;42.630;23.382;2023-09-07T08:10:45;94983.72;;;22.11;100.00
12775;BME280;6451;42.630;23.382;2023-09-07T08:13:12;94990.00;;;22.15;100.00
12775;BME280;6451;42.630;23.382;2023-09-07T08:15:40;94980.00;;;22.39;100.00
12775;BME280;6451;42.630;23.382;2023-09-07T08:18:08;94987.47;;;22.39;100.00
12775;BME280;6451;42.630;23.382;2023-09-07T08:20:35;94941.19;;;22.46;100.00
12775;BME280;6451;42.630;23.382;2023-09-07T08:23:05;94967.53;;;22.65;100.00
12775;BME280;6451;42.630;23.382;2023-09-07T08:25:34;94964.19;;;22.88;100.00
12775;BME280;6451;42.630;23.382;2023-09-07T08:28:00;94973.56;;;22.98;100.00
12775;BME280;6451;42.630;23.382;2023-09-07T08:30:31;94953.25;;;22.70;100.00
12775;BME280;6451;42.630;23.382;2023-09-07T08:32:59;94964.28;;;22.74;100.00
12775;BME280;6451;42.630;23.382;2023-09-07T08:35:27;94967.72;;;22.89;100.00
12775;BME280;6451;42.630;23.382;2023-09-07T08:37:54;94968.09;;;22.91;100.00
12775;BME280;6451;42.630;23.382;2023-09-07T08:40:23;94963.38;;;22.84;100.00
12775;BME280;6451;42.630;23.382;2023-09-07T08:42:51;94964.59;;;22.87;100.00
12775;BME280;6451;42.630;23.382;2023-09-07T08:45:21;94969.69;;;22.85;100.00
12775;BME280;6451;42.630;23.382;2023-09-07T08:47:49;94965.63;;;23.00;100.00
12775;BME280;6451;42.630;23.382;2023-09-07T08:50:18;94961.78;;;22.90;100.00
12775;BME280;6451;42.630;23.382;2023-09-07T08:52:47;94958.13;;;23.00;100.00
12775;BME280;6451;42.630;23.382;2023-09-07T08:55:18;94963.13;;;23.13;100.00
12775;BME280;6451;42.630;23.382;2023-09-07T08:57:46;94951.16;;;22.82;100.00
12775;BME280;6451;42.630;23.382;2023-09-07T09:00:14;94959.44;;;22.89;100.00
12775;BME280;6451;42.630;23.382;2023-09-07T09:02:41;94955.81;;;22.92;100.00
12775;BME280;6451;42.630;23.382;2023-09-07T09:05:09;94952.06;;;23.13;100.00
12775;BME280;6451;42.630;23.382;2023-09-07T09:07:37;94968.81;;;23.36;100.00
12775;BME280;6451;42.630;23.382;2023-09-07T09:10:05;94950.34;;;23.60;100.00
12775;BME280;6451;42.630;23.382;2023-09-07T09:12:33;94958.50;;;23.40;100.00
12775;BME280;6451;42.630;23.382;2023-09-07T09:15:00;94947.56;;;23.60;100.00
12775;BME280;6451;42.630;23.382;2023-09-07T09:17:27;94942.88;;;23.53;100.00
12775;BME280;6451;42.630;23.382;2023-09-07T09:19:53;94959.09;;;23.55;100.00
12775;BME280;6451;42.630;23.382;2023-09-07T09:22:20;94952.25;;;23.67;100.00
12775;BME280;6451;42.630;23.382;2023-09-07T09:24:51;94941.38;;;23.49;100.00
12775;BME280;6451;42.630;23.382;2023-09-07T09:27:18;94958.63;;;23.64;100.00
12775;BME280;6451;42.630;23.382;2023-09-07T09:29:45;94945.81;;;23.73;100.00
12775;BME280;6451;42.630;23.382;2023-09-07T09:32:13;94947.13;;;23.65;100.00
12775;BME280;6451;42.630;23.382;2023-09-07T09:34:43;94958.06;;;23.76;100.00
12775;BME280;6451;42.630;23.382;2023-09-07T09:37:13;94939.78;;;23.82;100.00
12775;BME280;6451;42.630;23.382;2023-09-07T09:39:41;94943.44;;;24.02;98.76
12775;BME280;6451;42.630;23.382;2023-09-07T09:42:10;94927.69;;;23.96;98.74
12775;BME280;6451;42.630;23.382;2023-09-07T09:44:39;94945.81;;;24.04;98.75
12775;BME280;6451;42.630;23.382;2023-09-07T09:47:08;94941.59;;;23.65;99.61
12775;BME280;6451;42.630;23.382;2023-09-07T09:49:36;94935.63;;;23.67;100.00
12775;BME280;6451;42.630;23.382;2023-09-07T09:52:05;94937.44;;;23.77;100.00
12775;BME280;6451;42.630;23.382;2023-09-07T09:54:34;94935.34;;;23.88;99.71
12775;BME280;6451;42.630;23.382;2023-09-07T09:57:01;94922.09;;;23.99;98.24
12775;BME280;6451;42.630;23.382;2023-09-07T09:59:30;94929.25;;;23.97;97.61
12775;BME280;6451;42.630;23.382;2023-09-07T10:01:57;94936.00;;;24.50;92.13
12775;BME280;6451;42.630;23.382;2023-09-07T10:04:26;94927.94;;;24.59;89.82
12775;BME280;6451;42.630;23.382;2023-09-07T10:06:55;94927.94;;;24.59;88.74
12775;BME280;6451;42.630;23.382;2023-09-07T10:09:29;94934.13;;;25.13;86.32
12775;BME280;6451;42.630;23.382;2023-09-07T10:11:58;94928.44;;;24.97;87.29
12775;BME280;6451;42.630;23.382;2023-09-07T10:14:26;94907.34;;;25.03;85.67
12775;BME280;6451;42.630;23.382;2023-09-07T10:16:54;94915.84;;;25.16;81.56
12775;BME280;6451;42.630;23.382;2023-09-07T10:19:25;94907.94;;;25.34;79.74
12775;BME280;6451;42.630;23.382;2023-09-07T10:21:54;94913.63;;;25.47;82.41
12775;BME280;6451;42.630;23.382;2023-09-07T10:24:27;94917.88;;;25.51;80.60
12775;BME280;6451;42.630;23.382;2023-09-07T10:26:59;94920.19;;;24.93;83.07
12775;BME280;6451;42.630;23.382;2023-09-07T10:29:26;94913.31;;;25.21;79.23
12775;BME280;6451;42.630;23.382;2023-09-07T10:31:54;94897.38;;;25.06;78.73
12775;BME280;6451;42.630;23.382;2023-09-07T10:34:21;94909.63;;;25.08;79.25
12775;BME280;6451;42.630;23.382;2023-09-07T10:36:56;94896.94;;;25.07;79.18
12775;BME280;6451;42.630;23.382;2023-09-07T10:39:22;94900.59;;;25.24;77.28
12775;BME280;6451;42.630;23.382;2023-09-07T10:41:49;94894.47;;;25.33;77.84
12775;BME280;6451;42.630;23.382;2023-09-07T10:44:25;94903.00;;;25.42;77.31
12775;BME280;6451;42.630;23.382;2023-09-07T10:46:54;94899.50;;;25.38;77.31
12775;BME280;6451;42.630;23.382;2023-09-07T10:49:21;94910.94;;;25.23;75.52
12775;BME280;6451;42.630;23.382;2023-09-07T10:51:48;94888.97;;;25.09;80.15
12775;BME280;6451;42.630;23.382;2023-09-07T10:54:16;94909.09;;;24.93;79.95
12775;BME280;6451;42.630;23.382;2023-09-07T10:56:44;94911.84;;;25.17;79.97
12775;BME280;6451;42.630;23.382;2023-09-07T10:59:12;94914.41;;;25.08;78.60
12775;BME280;6451;42.630;23.382;2023-09-07T11:01:39;94905.09;;;24.94;78.17
12775;BME280;6451;42.630;23.382;2023-09-07T11:04:09;94907.53;;;24.92;81.37
12775;BME280;6451;42.630;23.382;2023-09-07T11:06:38;94905.94;;;24.91;80.28
12775;BME280;6451;42.630;23.382;2023-09-07T11:09:06;94901.69;;;24.63;83.38
12775;BME280;6451;42.630;23.382;2023-09-07T11:11:34;94892.03;;;24.48;84.27
12775;BME280;6451;42.630;23.382;2023-09-07T11:14:02;94908.81;;;24.64;83.52
12775;BME280;6451;42.630;23.382;2023-09-07T11:16:29;94907.25;;;24.40;83.64
12775;BME280;6451;42.630;23.382;2023-09-07T11:18:56;94915.91;;;24.15;85.94
12775;BME280;6451;42.630;23.382;2023-09-07T11:21:25;94899.28;;;24.15;89.09
12775;BME280;6451;42.630;23.382;2023-09-07T11:23:53;94908.59;;;24.28;88.72
12775;BME280;6451;42.630;23.382;2023-09-07T11:26:20;94908.81;;;24.41;87.95
12775;BME280;6451;42.630;23.382;2023-09-07T11:28:48;94908.22;;;24.26;90.02
12775;BME280;6451;42.630;23.382;2023-09-07T11:31:18;94908.63;;;24.01;91.68
12775;BME280;6451;42.630;23.382;2023-09-07T11:33:46;94900.47;;;24.14;93.41
12775;BME280;6451;42.630;23.382;2023-09-07T11:36:13;94902.44;;;24.17;93.36
12775;BME280;6451;42.630;23.382;2023-09-07T11:38:43;94905.13;;;24.21;91.94
12775;BME280;6451;42.630;23.382;2023-09-07T11:41:10;94896.66;;;24.31;92.34
12775;BME280;6451;42.630;23.382;2023-09-07T11:43:37;94896.28;;;24.29;92.81
12775;BME280;6451;42.630;23.382;2023-09-07T11:46:05;94889.66;;;24.23;93.00
12775;BME280;6451;42.630;23.382;2023-09-07T11:48:32;94891.03;;;24.38;88.57
12775;BME280;6451;42.630;23.382;2023-09-07T11:51:00;94900.19;;;24.35;90.48
12775;BME280;6451;42.630;23.382;2023-09-07T11:53:27;94895.25;;;24.20;91.95
12775;BME280;6451;42.630;23.382;2023-09-07T11:55:55;94891.56;;;24.03;93.30
12775;BME280;6451;42.630;23.382;2023-09-07T11:58:24;94888.47;;;23.97;95.15
12775;BME280;6451;42.630;23.382;2023-09-07T12:00:52;94890.97;;;23.88;95.50
12775;BME280;6451;42.630;23.382;2023-09-07T12:03:19;94885.22;;;24.02;94.40
12775;BME280;6451;42.630;23.382;2023-09-07T12:05:46;94883.44;;;24.16;94.27
12775;BME280;6451;42.630;23.382;2023-09-07T12:08:15;94864.97;;;24.29;90.93
12775;BME280;6451;42.630;23.382;2023-09-07T12:10:42;94887.16;;;24.32;89.73
12775;BME280;6451;42.630;23.382;2023-09-07T12:13:10;94879.34;;;24.24;90.22
12775;BME280;6451;42.630;23.382;2023-09-07T12:15:38;94886.38;;;24.28;90.64
12775;BME280;6451;42.630;23.382;2023-09-07T12:18:05;94884.44;;;24.02;88.99
12775;BME280;6451;42.630;23.382;2023-09-07T12:20:32;94881.03;;;23.91;92.27
12775;BME280;6451;42.630;23.382;2023-09-07T12:23:00;94881.09;;;23.87;91.99
12775;BME280;6451;42.630;23.382;2023-09-07T12:25:28;94873.03;;;23.69;92.94
12775;BME280;6451;42.630;23.382;2023-09-07T12:27:55;94881.47;;;23.89;92.70
12775;BME280;6451;42.630;23.382;2023-09-07T12:30:23;94880.84;;;23.78;93.74
12775;BME280;6451;42.630;23.382;2023-09-07T12:32:51;94879.72;;;23.99;92.86
12775;BME280;6451;42.630;23.382;2023-09-07T12:35:18;94864.66;;;24.00;90.29
12775;BME280;6451;42.630;23.382;2023-09-07T12:37:45;94876.13;;;24.02;90.30
12775;BME280;6451;42.630;23.382;2023-09-07T12:40:13;94873.41;;;24.22;90.92
12775;BME280;6451;42.630;23.382;2023-09-07T12:42:40;94860.03;;;23.93;88.09
12775;BME280;6451;42.630;23.382;2023-09-07T12:45:08;94860.34;;;24.22;87.77
12775;BME280;6451;42.630;23.382;2023-09-07T12:47:37;94881.91;;;24.38;87.07
12775;BME280;6451;42.630;23.382;2023-09-07T12:50:06;94884.78;;;24.31;87.24
12775;BME280;6451;42.630;23.382;2023-09-07T12:52:34;94894.03;;;24.48;87.66
12775;BME280;6451;42.630;23.382;2023-09-07T12:55:04;94886.91;;;24.70;84.26